Banning, CA

12:32 AM PST on March 06, 2015 (GMT -0800)
Banning Equestrian Estates | Change Station
CLOSE
Current Station
Personal Weather Station
Location: Banning, CA
Elevation: 2516 ft
Nearby Weather Stations
Active Advisory: Wind Advisory

Elev 2516 ft 33.94 °N, 116.89 °W | Updated 4 minutes ago

Clear
Clear
57.0 °F
Feels Like 57.0 °F
N
4.2
Wind Variable Wind from SSE

Today
High -- | Low -- °F
--% Chance of Precip.
Yesterday
High -- | Low -- °F
Precip. -- in
6:10 AM 5:48 PM
Full, 100% visible
Pressure 30.17 in
Visibility 10.0 miles
Clouds Clear
Dew Point 22 °F
Humidity 25%
Rainfall in
Snow Depth Not available.
UV 0 out of 12
Pollen 8.80 out of 12
Air Quality Not available.
Flu Activity Not available.
METAR KRIV 060758Z AUTO 35006KT 10SM CLR 05/M03 A3018 RMK AO2 SLP217 T00511035 402230006

More Conditions Fewer Conditions

Pressure 30.17 in
Visibility 10.0 miles
Clouds Clear
Dew Point 22 °F
Humidity 25%
Rainfall in
Snow Depth Not available.
UV 0 out of 12
Pollen 8.80 out of 12
Air Quality Not available.
Flu Activity Not available.
METAR KRIV 060758Z AUTO 35006KT 10SM CLR 05/M03 A3018 RMK AO2 SLP217 T00511035 402230006

More Conditions Fewer Conditions

10-Day Weather Forecast

Almanac

Astronomy

Mar. 06, 2015 Rise Set
Actual Time
Civil Twilight
Nautical Twilight
Astronomical Twilight
Moon
Length of Visible Light
Length of Day
Tomorrow will be .
, % of the Moon is Illuminated

Today's Extremes

State Highs State Lows

Community

WunderPhotos

Upload Photos

1,803,207 photos uploaded!

WunderBlogs® & News

Nearby

Air Quality

  Air Quality AQ Index Pollutant
Not available.

Snow Depth

Station Depth Elevation

Earthquake Activity

City Distance Mag. Time & Date
Minimum magnitude displayed is 2.5.

Coastal Water Temperatures

Place Temperature

Nearby Weather Stations

Wind Advisory
Statement as of 9:37 PM PST on March 05, 2015

... Wind Advisory remains in effect until 4 PM PST Friday...

* winds... northeast to east at 20 to 30 mph with gusts to 50
mph... locally higher.

* Timing... this evening through Friday afternoon.

* Locations... inland Orange County... the inland Empire... San
Diego County valleys.

* Impacts... strong winds will make driving difficult for high
profile vehicles.

* Outlook... offshore winds will gradually diminish Friday
evening through the weekend... though remain somewhat gusty.

Precautionary/preparedness actions...

A Wind Advisory means that winds of 35 mph are expected. Winds
this strong can make driving difficult... especially for high
profile vehicles. Use extra caution.



Maxwell